Terminal Aerodrome Forecast
Issued by NWS Pittsburgh, PA

Current Version | Previous Version | Text Only | Print | Product List | Glossary Off
Versions: 1 2 3 4 5 6 7 8 9 10 11 12 13 14 15 16 17 18 19 20 21 22 23 24 25 26 27

096
FTUS41 KPBZ 202346
TAFPIT
TAF
KPIT 202346Z 2100/2206 09007KT P6SM FEW250
     FM210800 12008KT P6SM BKN100
     FM211900 16008KT P6SM -SHRA VCTS OVC025CB
     FM212200 16008KT 5SM -RA BR OVC015
     FM220300 17007KT 3SM -RA BR OVC008=

USA.gov is the U.S. government's official web portal to all federal, state and local government web resources and services.